<?xml version="1.0" encoding="UTF-8" standalone="no" ?>
<gpx xmlns="http://www.topografix.com/GPX/1/1" xmlns:xsi="http://www.w3.org/2001/XMLSchema-instance" xsi:schemaLocation="http://www.topografix.com/GPX/1/1 http://www.topografix.com/GPX/1/1/gpx.xsd" version="1.1" creator="VisuGPX - https://www.visugpx.com">
  <metadata>
    <name>Parcours 3 dents Pilat</name>
    <desc><![CDATA[Parcours 25 km / 1500d  au départ de Doizieux]]></desc>
  </metadata>
  <trk>
    <name><![CDATA[OR-6223435--Doizieux:Les 3 dents]]></name>
    <trkseg>
      <trkpt lat="45.42733" lon="4.58582">
        <ele>589</ele>
        <time>2017-04-20T10:48:37Z</time>
      </trkpt>
      <trkpt lat="45.4268" lon="4.58611">
        <ele>600</ele>
        <time>2017-04-20T10:50:37Z</time>
      </trkpt>
      <trkpt lat="45.42731" lon="4.58474">
        <ele>598</ele>
        <time>2017-04-20T10:52:37Z</time>
      </trkpt>
      <trkpt lat="45.42698" lon="4.58422">
        <ele>616</ele>
        <time>2017-04-20T10:54:37Z</time>
      </trkpt>
      <trkpt lat="45.42653" lon="4.58495">
        <ele>628</ele>
        <time>2017-04-20T10:56:37Z</time>
      </trkpt>
      <trkpt lat="45.4258" lon="4.58443">
        <ele>648</ele>
        <time>2017-04-20T10:58:37Z</time>
      </trkpt>
      <trkpt lat="45.42388" lon="4.58358">
        <ele>691</ele>
        <time>2017-04-20T11:00:37Z</time>
      </trkpt>
      <trkpt lat="45.42427" lon="4.58306">
        <ele>695</ele>
        <time>2017-04-20T11:02:37Z</time>
      </trkpt>
      <trkpt lat="45.42321" lon="4.58263">
        <ele>709</ele>
        <time>2017-04-20T11:04:37Z</time>
      </trkpt>
      <trkpt lat="45.423" lon="4.58156">
        <ele>722</ele>
        <time>2017-04-20T11:06:37Z</time>
      </trkpt>
      <trkpt lat="45.42216" lon="4.58019">
        <ele>742</ele>
        <time>2017-04-20T11:08:37Z</time>
      </trkpt>
      <trkpt lat="45.42177" lon="4.57928">
        <ele>754</ele>
        <time>2017-04-20T11:10:37Z</time>
      </trkpt>
      <trkpt lat="45.42116" lon="4.5783">
        <ele>766</ele>
        <time>2017-04-20T11:12:37Z</time>
      </trkpt>
      <trkpt lat="45.42041" lon="4.57727">
        <ele>779</ele>
        <time>2017-04-20T11:14:37Z</time>
      </trkpt>
      <trkpt lat="45.42005" lon="4.57628">
        <ele>795</ele>
        <time>2017-04-20T11:16:37Z</time>
      </trkpt>
      <trkpt lat="45.4196" lon="4.57517">
        <ele>821</ele>
        <time>2017-04-20T11:18:37Z</time>
      </trkpt>
      <trkpt lat="45.41891" lon="4.57495">
        <ele>834</ele>
        <time>2017-04-20T11:20:37Z</time>
      </trkpt>
      <trkpt lat="45.4186" lon="4.57474">
        <ele>841</ele>
        <time>2017-04-20T11:22:37Z</time>
      </trkpt>
      <trkpt lat="45.41887" lon="4.57315">
        <ele>863</ele>
        <time>2017-04-20T11:24:37Z</time>
      </trkpt>
      <trkpt lat="45.41904" lon="4.57255">
        <ele>867</ele>
        <time>2017-04-20T11:26:37Z</time>
      </trkpt>
      <trkpt lat="45.41903" lon="4.57167">
        <ele>877</ele>
        <time>2017-04-20T11:28:37Z</time>
      </trkpt>
      <trkpt lat="45.41871" lon="4.57105">
        <ele>886</ele>
        <time>2017-04-20T11:30:37Z</time>
      </trkpt>
      <trkpt lat="45.41808" lon="4.57049">
        <ele>895</ele>
        <time>2017-04-20T11:32:37Z</time>
      </trkpt>
      <trkpt lat="45.41747" lon="4.57029">
        <ele>902</ele>
        <time>2017-04-20T11:34:37Z</time>
      </trkpt>
      <trkpt lat="45.41678" lon="4.57023">
        <ele>909</ele>
        <time>2017-04-20T11:36:37Z</time>
      </trkpt>
      <trkpt lat="45.41618" lon="4.57049">
        <ele>911</ele>
        <time>2017-04-20T11:38:37Z</time>
      </trkpt>
      <trkpt lat="45.41538" lon="4.57107">
        <ele>918</ele>
        <time>2017-04-20T11:40:37Z</time>
      </trkpt>
      <trkpt lat="45.41466" lon="4.57102">
        <ele>927</ele>
        <time>2017-04-20T11:42:37Z</time>
      </trkpt>
      <trkpt lat="45.41383" lon="4.57049">
        <ele>940</ele>
        <time>2017-04-20T11:44:37Z</time>
      </trkpt>
      <trkpt lat="45.41323" lon="4.56965">
        <ele>948</ele>
        <time>2017-04-20T11:46:37Z</time>
      </trkpt>
      <trkpt lat="45.41302" lon="4.56871">
        <ele>942</ele>
        <time>2017-04-20T11:48:37Z</time>
      </trkpt>
      <trkpt lat="45.41265" lon="4.56785">
        <ele>940</ele>
        <time>2017-04-20T11:50:37Z</time>
      </trkpt>
      <trkpt lat="45.4124" lon="4.56725">
        <ele>942</ele>
        <time>2017-04-20T11:52:37Z</time>
      </trkpt>
      <trkpt lat="45.4124" lon="4.56538">
        <ele>926</ele>
        <time>2017-04-20T11:54:37Z</time>
      </trkpt>
      <trkpt lat="45.41234" lon="4.56435">
        <ele>920</ele>
        <time>2017-04-20T11:56:37Z</time>
      </trkpt>
      <trkpt lat="45.41213" lon="4.56323">
        <ele>919</ele>
        <time>2017-04-20T11:58:37Z</time>
      </trkpt>
      <trkpt lat="45.41204" lon="4.56193">
        <ele>927</ele>
        <time>2017-04-20T12:00:37Z</time>
      </trkpt>
      <trkpt lat="45.41256" lon="4.56122">
        <ele>920</ele>
        <time>2017-04-20T12:02:37Z</time>
      </trkpt>
      <trkpt lat="45.41315" lon="4.56023">
        <ele>917</ele>
        <time>2017-04-20T12:04:37Z</time>
      </trkpt>
      <trkpt lat="45.41336" lon="4.55914">
        <ele>923</ele>
        <time>2017-04-20T12:06:37Z</time>
      </trkpt>
      <trkpt lat="45.41369" lon="4.55877">
        <ele>914</ele>
        <time>2017-04-20T12:08:37Z</time>
      </trkpt>
      <trkpt lat="45.41377" lon="4.55791">
        <ele>916</ele>
        <time>2017-04-20T12:10:37Z</time>
      </trkpt>
      <trkpt lat="45.41384" lon="4.55744">
        <ele>914</ele>
        <time>2017-04-20T12:12:37Z</time>
      </trkpt>
      <trkpt lat="45.41365" lon="4.55693">
        <ele>921</ele>
        <time>2017-04-20T12:14:37Z</time>
      </trkpt>
      <trkpt lat="45.41336" lon="4.55643">
        <ele>933</ele>
        <time>2017-04-20T12:16:37Z</time>
      </trkpt>
      <trkpt lat="45.41323" lon="4.55609">
        <ele>936</ele>
        <time>2017-04-20T12:18:37Z</time>
      </trkpt>
      <trkpt lat="45.413" lon="4.55615">
        <ele>945</ele>
        <time>2017-04-20T12:20:37Z</time>
      </trkpt>
      <trkpt lat="45.41294" lon="4.55519">
        <ele>941</ele>
        <time>2017-04-20T12:22:37Z</time>
      </trkpt>
      <trkpt lat="45.41271" lon="4.55405">
        <ele>927</ele>
        <time>2017-04-20T12:24:37Z</time>
      </trkpt>
      <trkpt lat="45.41288" lon="4.55351">
        <ele>912</ele>
        <time>2017-04-20T12:26:37Z</time>
      </trkpt>
      <trkpt lat="45.41288" lon="4.55223">
        <ele>893</ele>
        <time>2017-04-20T12:28:37Z</time>
      </trkpt>
      <trkpt lat="45.4124" lon="4.55272">
        <ele>899</ele>
        <time>2017-04-20T12:30:37Z</time>
      </trkpt>
      <trkpt lat="45.41172" lon="4.55339">
        <ele>906</ele>
        <time>2017-04-20T12:32:37Z</time>
      </trkpt>
      <trkpt lat="45.41125" lon="4.55381">
        <ele>909</ele>
        <time>2017-04-20T12:34:37Z</time>
      </trkpt>
      <trkpt lat="45.41101" lon="4.55452">
        <ele>929</ele>
        <time>2017-04-20T12:36:37Z</time>
      </trkpt>
      <trkpt lat="45.41053" lon="4.55506">
        <ele>937</ele>
        <time>2017-04-20T12:38:37Z</time>
      </trkpt>
      <trkpt lat="45.40972" lon="4.55575">
        <ele>944</ele>
        <time>2017-04-20T12:40:37Z</time>
      </trkpt>
      <trkpt lat="45.40911" lon="4.55628">
        <ele>946</ele>
        <time>2017-04-20T12:42:37Z</time>
      </trkpt>
      <trkpt lat="45.40871" lon="4.5569">
        <ele>949</ele>
        <time>2017-04-20T12:44:37Z</time>
      </trkpt>
      <trkpt lat="45.40842" lon="4.55753">
        <ele>951</ele>
        <time>2017-04-20T12:46:37Z</time>
      </trkpt>
      <trkpt lat="45.40824" lon="4.55834">
        <ele>961</ele>
        <time>2017-04-20T12:48:37Z</time>
      </trkpt>
      <trkpt lat="45.40815" lon="4.55888">
        <ele>962</ele>
        <time>2017-04-20T12:50:37Z</time>
      </trkpt>
      <trkpt lat="45.40801" lon="4.55933">
        <ele>962</ele>
        <time>2017-04-20T12:52:37Z</time>
      </trkpt>
      <trkpt lat="45.40794" lon="4.55991">
        <ele>969</ele>
        <time>2017-04-20T12:54:37Z</time>
      </trkpt>
      <trkpt lat="45.40797" lon="4.56068">
        <ele>982</ele>
        <time>2017-04-20T12:56:37Z</time>
      </trkpt>
      <trkpt lat="45.40773" lon="4.561">
        <ele>984</ele>
        <time>2017-04-20T12:58:37Z</time>
      </trkpt>
      <trkpt lat="45.40725" lon="4.56137">
        <ele>986</ele>
        <time>2017-04-20T13:00:37Z</time>
      </trkpt>
      <trkpt lat="45.40643" lon="4.56158">
        <ele>981</ele>
        <time>2017-04-20T13:02:37Z</time>
      </trkpt>
      <trkpt lat="45.40592" lon="4.5618">
        <ele>980</ele>
        <time>2017-04-20T13:04:37Z</time>
      </trkpt>
      <trkpt lat="45.40551" lon="4.56201">
        <ele>987</ele>
        <time>2017-04-20T13:06:37Z</time>
      </trkpt>
      <trkpt lat="45.40512" lon="4.5621">
        <ele>993</ele>
        <time>2017-04-20T13:08:37Z</time>
      </trkpt>
      <trkpt lat="45.40478" lon="4.56152">
        <ele>989</ele>
        <time>2017-04-20T13:10:37Z</time>
      </trkpt>
      <trkpt lat="45.40452" lon="4.56072">
        <ele>984</ele>
        <time>2017-04-20T13:12:37Z</time>
      </trkpt>
      <trkpt lat="45.40414" lon="4.56004">
        <ele>982</ele>
        <time>2017-04-20T13:14:37Z</time>
      </trkpt>
      <trkpt lat="45.40366" lon="4.55946">
        <ele>981</ele>
        <time>2017-04-20T13:16:37Z</time>
      </trkpt>
      <trkpt lat="45.40348" lon="4.55869">
        <ele>974</ele>
        <time>2017-04-20T13:18:37Z</time>
      </trkpt>
      <trkpt lat="45.40298" lon="4.5574">
        <ele>965</ele>
        <time>2017-04-20T13:20:37Z</time>
      </trkpt>
      <trkpt lat="45.4025" lon="4.55733">
        <ele>961</ele>
        <time>2017-04-20T13:22:37Z</time>
      </trkpt>
      <trkpt lat="45.40191" lon="4.55759">
        <ele>952</ele>
        <time>2017-04-20T13:24:37Z</time>
      </trkpt>
      <trkpt lat="45.40108" lon="4.55763">
        <ele>939</ele>
        <time>2017-04-20T13:26:37Z</time>
      </trkpt>
      <trkpt lat="45.40059" lon="4.55768">
        <ele>934</ele>
        <time>2017-04-20T13:28:37Z</time>
      </trkpt>
      <trkpt lat="45.40017" lon="4.55787">
        <ele>936</ele>
        <time>2017-04-20T13:30:37Z</time>
      </trkpt>
      <trkpt lat="45.39952" lon="4.55796">
        <ele>925</ele>
        <time>2017-04-20T13:32:37Z</time>
      </trkpt>
      <trkpt lat="45.39876" lon="4.55806">
        <ele>909</ele>
        <time>2017-04-20T13:34:37Z</time>
      </trkpt>
      <trkpt lat="45.39836" lon="4.55808">
        <ele>899</ele>
        <time>2017-04-20T13:36:37Z</time>
      </trkpt>
      <trkpt lat="45.39785" lon="4.55839">
        <ele>919</ele>
        <time>2017-04-20T13:38:37Z</time>
      </trkpt>
      <trkpt lat="45.39785" lon="4.55763">
        <ele>902</ele>
        <time>2017-04-20T13:40:37Z</time>
      </trkpt>
      <trkpt lat="45.39783" lon="4.55654">
        <ele>884</ele>
        <time>2017-04-20T13:42:37Z</time>
      </trkpt>
      <trkpt lat="45.39778" lon="4.55568">
        <ele>866</ele>
        <time>2017-04-20T13:44:37Z</time>
      </trkpt>
      <trkpt lat="45.39727" lon="4.5556">
        <ele>880</ele>
        <time>2017-04-20T13:46:37Z</time>
      </trkpt>
      <trkpt lat="45.39672" lon="4.55549">
        <ele>890</ele>
        <time>2017-04-20T13:48:37Z</time>
      </trkpt>
      <trkpt lat="45.39647" lon="4.55594">
        <ele>911</ele>
        <time>2017-04-20T13:50:37Z</time>
      </trkpt>
      <trkpt lat="45.39631" lon="4.5565">
        <ele>937</ele>
        <time>2017-04-20T13:52:37Z</time>
      </trkpt>
      <trkpt lat="45.3959" lon="4.55675">
        <ele>956</ele>
        <time>2017-04-20T13:54:37Z</time>
      </trkpt>
      <trkpt lat="45.39571" lon="4.55712">
        <ele>971</ele>
        <time>2017-04-20T13:56:37Z</time>
      </trkpt>
      <trkpt lat="45.39607" lon="4.55746">
        <ele>974</ele>
        <time>2017-04-20T13:58:37Z</time>
      </trkpt>
      <trkpt lat="45.39632" lon="4.55796">
        <ele>977</ele>
        <time>2017-04-20T14:00:37Z</time>
      </trkpt>
      <trkpt lat="45.39647" lon="4.55858">
        <ele>980</ele>
        <time>2017-04-20T14:02:37Z</time>
      </trkpt>
      <trkpt lat="45.39652" lon="4.55916">
        <ele>983</ele>
        <time>2017-04-20T14:04:37Z</time>
      </trkpt>
      <trkpt lat="45.39649" lon="4.55965">
        <ele>988</ele>
        <time>2017-04-20T14:06:37Z</time>
      </trkpt>
      <trkpt lat="45.39637" lon="4.56023">
        <ele>1004</ele>
        <time>2017-04-20T14:08:37Z</time>
      </trkpt>
      <trkpt lat="45.39613" lon="4.56066">
        <ele>1025</ele>
        <time>2017-04-20T14:10:37Z</time>
      </trkpt>
      <trkpt lat="45.3958" lon="4.56087">
        <ele>1042</ele>
        <time>2017-04-20T14:12:37Z</time>
      </trkpt>
      <trkpt lat="45.39537" lon="4.56107">
        <ele>1073</ele>
        <time>2017-04-20T14:14:37Z</time>
      </trkpt>
      <trkpt lat="45.39506" lon="4.56137">
        <ele>1096</ele>
        <time>2017-04-20T14:16:37Z</time>
      </trkpt>
      <trkpt lat="45.39471" lon="4.56156">
        <ele>1109</ele>
        <time>2017-04-20T14:18:37Z</time>
      </trkpt>
      <trkpt lat="45.39449" lon="4.56242">
        <ele>1140</ele>
        <time>2017-04-20T14:20:37Z</time>
      </trkpt>
      <trkpt lat="45.39438" lon="4.56323">
        <ele>1158</ele>
        <time>2017-04-20T14:22:37Z</time>
      </trkpt>
      <trkpt lat="45.39406" lon="4.56384">
        <ele>1173</ele>
        <time>2017-04-20T14:24:37Z</time>
      </trkpt>
      <trkpt lat="45.3936" lon="4.56456">
        <ele>1194</ele>
        <time>2017-04-20T14:26:37Z</time>
      </trkpt>
      <trkpt lat="45.39304" lon="4.56538">
        <ele>1219</ele>
        <time>2017-04-20T14:28:37Z</time>
      </trkpt>
      <trkpt lat="45.39275" lon="4.56598">
        <ele>1232</ele>
        <time>2017-04-20T14:30:37Z</time>
      </trkpt>
      <trkpt lat="45.39221" lon="4.56615">
        <ele>1245</ele>
        <time>2017-04-20T14:32:37Z</time>
      </trkpt>
      <trkpt lat="45.39179" lon="4.5663">
        <ele>1255</ele>
        <time>2017-04-20T14:34:37Z</time>
      </trkpt>
      <trkpt lat="45.39138" lon="4.56688">
        <ele>1265</ele>
        <time>2017-04-20T14:36:37Z</time>
      </trkpt>
      <trkpt lat="45.39093" lon="4.56716">
        <ele>1272</ele>
        <time>2017-04-20T14:38:37Z</time>
      </trkpt>
      <trkpt lat="45.39046" lon="4.56768">
        <ele>1280</ele>
        <time>2017-04-20T14:40:37Z</time>
      </trkpt>
      <trkpt lat="45.39015" lon="4.56819">
        <ele>1287</ele>
        <time>2017-04-20T14:42:37Z</time>
      </trkpt>
      <trkpt lat="45.39004" lon="4.56933">
        <ele>1297</ele>
        <time>2017-04-20T14:44:37Z</time>
      </trkpt>
      <trkpt lat="45.38999" lon="4.57087">
        <ele>1309</ele>
        <time>2017-04-20T14:46:37Z</time>
      </trkpt>
      <trkpt lat="45.38998" lon="4.57192">
        <ele>1308</ele>
        <time>2017-04-20T14:48:37Z</time>
      </trkpt>
      <trkpt lat="45.3899" lon="4.57291">
        <ele>1304</ele>
        <time>2017-04-20T14:50:37Z</time>
      </trkpt>
      <trkpt lat="45.38974" lon="4.57371">
        <ele>1306</ele>
        <time>2017-04-20T14:52:37Z</time>
      </trkpt>
      <trkpt lat="45.38948" lon="4.57411">
        <ele>1309</ele>
        <time>2017-04-20T14:54:37Z</time>
      </trkpt>
      <trkpt lat="45.38876" lon="4.57441">
        <ele>1317</ele>
        <time>2017-04-20T14:56:37Z</time>
      </trkpt>
      <trkpt lat="45.38792" lon="4.57476">
        <ele>1330</ele>
        <time>2017-04-20T14:58:37Z</time>
      </trkpt>
      <trkpt lat="45.38734" lon="4.57486">
        <ele>1339</ele>
        <time>2017-04-20T15:00:37Z</time>
      </trkpt>
      <trkpt lat="45.38666" lon="4.57525">
        <ele>1352</ele>
        <time>2017-04-20T15:02:37Z</time>
      </trkpt>
      <trkpt lat="45.38648" lon="4.57549">
        <ele>1356</ele>
        <time>2017-04-20T15:04:37Z</time>
      </trkpt>
      <trkpt lat="45.38568" lon="4.57574">
        <ele>1368</ele>
        <time>2017-04-20T15:06:37Z</time>
      </trkpt>
      <trkpt lat="45.38514" lon="4.57598">
        <ele>1376</ele>
        <time>2017-04-20T15:08:37Z</time>
      </trkpt>
      <trkpt lat="45.38434" lon="4.57615">
        <ele>1389</ele>
        <time>2017-04-20T15:10:37Z</time>
      </trkpt>
      <trkpt lat="45.38376" lon="4.57617">
        <ele>1396</ele>
        <time>2017-04-20T15:12:37Z</time>
      </trkpt>
      <trkpt lat="45.38288" lon="4.5763">
        <ele>1398</ele>
        <time>2017-04-20T15:14:37Z</time>
      </trkpt>
      <trkpt lat="45.38174" lon="4.57624">
        <ele>1387</ele>
        <time>2017-04-20T15:16:37Z</time>
      </trkpt>
      <trkpt lat="45.38101" lon="4.57654">
        <ele>1376</ele>
        <time>2017-04-20T15:18:37Z</time>
      </trkpt>
      <trkpt lat="45.38061" lon="4.5769">
        <ele>1373</ele>
        <time>2017-04-20T15:20:37Z</time>
      </trkpt>
      <trkpt lat="45.38006" lon="4.57744">
        <ele>1371</ele>
        <time>2017-04-20T15:22:37Z</time>
      </trkpt>
      <trkpt lat="45.37985" lon="4.57783">
        <ele>1374</ele>
        <time>2017-04-20T15:24:37Z</time>
      </trkpt>
      <trkpt lat="45.38023" lon="4.57868">
        <ele>1391</ele>
        <time>2017-04-20T15:26:37Z</time>
      </trkpt>
      <trkpt lat="45.38002" lon="4.57986">
        <ele>1404</ele>
        <time>2017-04-20T15:28:37Z</time>
      </trkpt>
      <trkpt lat="45.37973" lon="4.58132">
        <ele>1414</ele>
        <time>2017-04-20T15:30:37Z</time>
      </trkpt>
      <trkpt lat="45.38125" lon="4.58072">
        <ele>1424</ele>
        <time>2017-04-20T15:32:37Z</time>
      </trkpt>
      <trkpt lat="45.38272" lon="4.58042">
        <ele>1420</ele>
        <time>2017-04-20T15:34:37Z</time>
      </trkpt>
      <trkpt lat="45.38279" lon="4.58107">
        <ele>1417</ele>
        <time>2017-04-20T15:36:37Z</time>
      </trkpt>
      <trkpt lat="45.38258" lon="4.58134">
        <ele>1418</ele>
        <time>2017-04-20T15:38:37Z</time>
      </trkpt>
      <trkpt lat="45.38269" lon="4.58197">
        <ele>1411</ele>
        <time>2017-04-20T15:40:37Z</time>
      </trkpt>
      <trkpt lat="45.38256" lon="4.58268">
        <ele>1405</ele>
        <time>2017-04-20T15:42:37Z</time>
      </trkpt>
      <trkpt lat="45.38234" lon="4.5833">
        <ele>1398</ele>
        <time>2017-04-20T15:44:37Z</time>
      </trkpt>
      <trkpt lat="45.38207" lon="4.58377">
        <ele>1394</ele>
        <time>2017-04-20T15:46:37Z</time>
      </trkpt>
      <trkpt lat="45.38174" lon="4.58452">
        <ele>1388</ele>
        <time>2017-04-20T15:48:37Z</time>
      </trkpt>
      <trkpt lat="45.3825" lon="4.58484">
        <ele>1384</ele>
        <time>2017-04-20T15:50:37Z</time>
      </trkpt>
      <trkpt lat="45.38266" lon="4.58555">
        <ele>1377</ele>
        <time>2017-04-20T15:52:37Z</time>
      </trkpt>
      <trkpt lat="45.38287" lon="4.58579">
        <ele>1375</ele>
        <time>2017-04-20T15:54:37Z</time>
      </trkpt>
      <trkpt lat="45.38324" lon="4.5857">
        <ele>1376</ele>
        <time>2017-04-20T15:56:37Z</time>
      </trkpt>
      <trkpt lat="45.38362" lon="4.58613">
        <ele>1369</ele>
        <time>2017-04-20T15:58:37Z</time>
      </trkpt>
      <trkpt lat="45.38404" lon="4.58634">
        <ele>1366</ele>
        <time>2017-04-20T16:00:37Z</time>
      </trkpt>
      <trkpt lat="45.38436" lon="4.58677">
        <ele>1364</ele>
        <time>2017-04-20T16:02:37Z</time>
      </trkpt>
      <trkpt lat="45.38421" lon="4.5872">
        <ele>1364</ele>
        <time>2017-04-20T16:04:37Z</time>
      </trkpt>
      <trkpt lat="45.3837" lon="4.58716">
        <ele>1358</ele>
        <time>2017-04-20T16:06:37Z</time>
      </trkpt>
      <trkpt lat="45.38299" lon="4.58682">
        <ele>1355</ele>
        <time>2017-04-20T16:08:37Z</time>
      </trkpt>
      <trkpt lat="45.38312" lon="4.58772">
        <ele>1342</ele>
        <time>2017-04-20T16:10:37Z</time>
      </trkpt>
      <trkpt lat="45.3833" lon="4.58851">
        <ele>1337</ele>
        <time>2017-04-20T16:12:37Z</time>
      </trkpt>
      <trkpt lat="45.3832" lon="4.58913">
        <ele>1331</ele>
        <time>2017-04-20T16:14:37Z</time>
      </trkpt>
      <trkpt lat="45.38282" lon="4.58963">
        <ele>1316</ele>
        <time>2017-04-20T16:16:37Z</time>
      </trkpt>
      <trkpt lat="45.38253" lon="4.5904">
        <ele>1301</ele>
        <time>2017-04-20T16:18:37Z</time>
      </trkpt>
      <trkpt lat="45.38229" lon="4.59091">
        <ele>1291</ele>
        <time>2017-04-20T16:20:37Z</time>
      </trkpt>
      <trkpt lat="45.38213" lon="4.59164">
        <ele>1281</ele>
        <time>2017-04-20T16:22:37Z</time>
      </trkpt>
      <trkpt lat="45.38187" lon="4.59222">
        <ele>1266</ele>
        <time>2017-04-20T16:24:37Z</time>
      </trkpt>
      <trkpt lat="45.38159" lon="4.59304">
        <ele>1252</ele>
        <time>2017-04-20T16:26:37Z</time>
      </trkpt>
      <trkpt lat="45.38148" lon="4.59388">
        <ele>1246</ele>
        <time>2017-04-20T16:28:37Z</time>
      </trkpt>
      <trkpt lat="45.38118" lon="4.59433">
        <ele>1233</ele>
        <time>2017-04-20T16:30:37Z</time>
      </trkpt>
      <trkpt lat="45.38089" lon="4.5954">
        <ele>1217</ele>
        <time>2017-04-20T16:32:37Z</time>
      </trkpt>
      <trkpt lat="45.38056" lon="4.59634">
        <ele>1205</ele>
        <time>2017-04-20T16:34:37Z</time>
      </trkpt>
      <trkpt lat="45.38052" lon="4.59686">
        <ele>1201</ele>
        <time>2017-04-20T16:36:37Z</time>
      </trkpt>
      <trkpt lat="45.38039" lon="4.59716">
        <ele>1198</ele>
        <time>2017-04-20T16:38:37Z</time>
      </trkpt>
      <trkpt lat="45.38055" lon="4.59778">
        <ele>1194</ele>
        <time>2017-04-20T16:40:37Z</time>
      </trkpt>
      <trkpt lat="45.38086" lon="4.59808">
        <ele>1193</ele>
        <time>2017-04-20T16:42:37Z</time>
      </trkpt>
      <trkpt lat="45.38112" lon="4.59864">
        <ele>1192</ele>
        <time>2017-04-20T16:44:37Z</time>
      </trkpt>
      <trkpt lat="45.38107" lon="4.59907">
        <ele>1187</ele>
        <time>2017-04-20T16:46:37Z</time>
      </trkpt>
      <trkpt lat="45.38085" lon="4.59965">
        <ele>1179</ele>
        <time>2017-04-20T16:48:37Z</time>
      </trkpt>
      <trkpt lat="45.38042" lon="4.60023">
        <ele>1167</ele>
        <time>2017-04-20T16:50:37Z</time>
      </trkpt>
      <trkpt lat="45.37991" lon="4.60091">
        <ele>1153</ele>
        <time>2017-04-20T16:52:37Z</time>
      </trkpt>
      <trkpt lat="45.37954" lon="4.60149">
        <ele>1140</ele>
        <time>2017-04-20T16:54:37Z</time>
      </trkpt>
      <trkpt lat="45.37973" lon="4.60285">
        <ele>1140</ele>
        <time>2017-04-20T16:56:37Z</time>
      </trkpt>
      <trkpt lat="45.38033" lon="4.60353">
        <ele>1139</ele>
        <time>2017-04-20T16:58:37Z</time>
      </trkpt>
      <trkpt lat="45.38101" lon="4.60405">
        <ele>1131</ele>
        <time>2017-04-20T17:00:37Z</time>
      </trkpt>
      <trkpt lat="45.38199" lon="4.60426">
        <ele>1134</ele>
        <time>2017-04-20T17:02:37Z</time>
      </trkpt>
      <trkpt lat="45.38211" lon="4.60482">
        <ele>1133</ele>
        <time>2017-04-20T17:04:37Z</time>
      </trkpt>
      <trkpt lat="45.38199" lon="4.60553">
        <ele>1130</ele>
        <time>2017-04-20T17:06:37Z</time>
      </trkpt>
      <trkpt lat="45.38204" lon="4.60632">
        <ele>1132</ele>
        <time>2017-04-20T17:08:37Z</time>
      </trkpt>
      <trkpt lat="45.38228" lon="4.60737">
        <ele>1140</ele>
        <time>2017-04-20T17:10:37Z</time>
      </trkpt>
      <trkpt lat="45.38213" lon="4.608">
        <ele>1136</ele>
        <time>2017-04-20T17:12:37Z</time>
      </trkpt>
      <trkpt lat="45.38229" lon="4.60872">
        <ele>1134</ele>
        <time>2017-04-20T17:14:37Z</time>
      </trkpt>
      <trkpt lat="45.38278" lon="4.60954">
        <ele>1138</ele>
        <time>2017-04-20T17:16:37Z</time>
      </trkpt>
      <trkpt lat="45.38299" lon="4.61018">
        <ele>1139</ele>
        <time>2017-04-20T17:18:37Z</time>
      </trkpt>
      <trkpt lat="45.3835" lon="4.61074">
        <ele>1146</ele>
        <time>2017-04-20T17:20:37Z</time>
      </trkpt>
      <trkpt lat="45.3836" lon="4.61166">
        <ele>1155</ele>
        <time>2017-04-20T17:22:37Z</time>
      </trkpt>
      <trkpt lat="45.38379" lon="4.6125">
        <ele>1167</ele>
        <time>2017-04-20T17:24:37Z</time>
      </trkpt>
      <trkpt lat="45.38415" lon="4.61332">
        <ele>1182</ele>
        <time>2017-04-20T17:26:37Z</time>
      </trkpt>
      <trkpt lat="45.38442" lon="4.61377">
        <ele>1189</ele>
        <time>2017-04-20T17:28:37Z</time>
      </trkpt>
      <trkpt lat="45.38493" lon="4.61379">
        <ele>1189</ele>
        <time>2017-04-20T17:30:37Z</time>
      </trkpt>
      <trkpt lat="45.38486" lon="4.61508">
        <ele>1203</ele>
        <time>2017-04-20T17:32:37Z</time>
      </trkpt>
      <trkpt lat="45.38467" lon="4.61548">
        <ele>1198</ele>
        <time>2017-04-20T17:34:37Z</time>
      </trkpt>
      <trkpt lat="45.38412" lon="4.61557">
        <ele>1188</ele>
        <time>2017-04-20T17:36:37Z</time>
      </trkpt>
      <trkpt lat="45.38437" lon="4.61615">
        <ele>1182</ele>
        <time>2017-04-20T17:38:37Z</time>
      </trkpt>
      <trkpt lat="45.38457" lon="4.61744">
        <ele>1169</ele>
        <time>2017-04-20T17:40:37Z</time>
      </trkpt>
      <trkpt lat="45.38477" lon="4.61853">
        <ele>1160</ele>
        <time>2017-04-20T17:42:37Z</time>
      </trkpt>
      <trkpt lat="45.38546" lon="4.61984">
        <ele>1147</ele>
        <time>2017-04-20T17:44:37Z</time>
      </trkpt>
      <trkpt lat="45.38629" lon="4.62128">
        <ele>1126</ele>
        <time>2017-04-20T17:46:37Z</time>
      </trkpt>
      <trkpt lat="45.3868" lon="4.62248">
        <ele>1110</ele>
        <time>2017-04-20T17:48:37Z</time>
      </trkpt>
      <trkpt lat="45.38683" lon="4.62396">
        <ele>1099</ele>
        <time>2017-04-20T17:50:37Z</time>
      </trkpt>
      <trkpt lat="45.38656" lon="4.62488">
        <ele>1091</ele>
        <time>2017-04-20T17:52:37Z</time>
      </trkpt>
      <trkpt lat="45.38614" lon="4.62559">
        <ele>1078</ele>
        <time>2017-04-20T17:54:37Z</time>
      </trkpt>
      <trkpt lat="45.38579" lon="4.62641">
        <ele>1073</ele>
        <time>2017-04-20T17:56:37Z</time>
      </trkpt>
      <trkpt lat="45.38531" lon="4.62724">
        <ele>1065</ele>
        <time>2017-04-20T17:58:37Z</time>
      </trkpt>
      <trkpt lat="45.3851" lon="4.62844">
        <ele>1063</ele>
        <time>2017-04-20T18:00:37Z</time>
      </trkpt>
      <trkpt lat="45.38514" lon="4.63012">
        <ele>1054</ele>
        <time>2017-04-20T18:02:37Z</time>
      </trkpt>
      <trkpt lat="45.38517" lon="4.63065">
        <ele>1055</ele>
        <time>2017-04-20T18:04:37Z</time>
      </trkpt>
      <trkpt lat="45.38523" lon="4.6319">
        <ele>1051</ele>
        <time>2017-04-20T18:06:37Z</time>
      </trkpt>
      <trkpt lat="45.38553" lon="4.63106">
        <ele>1064</ele>
        <time>2017-04-20T18:08:37Z</time>
      </trkpt>
      <trkpt lat="45.38581" lon="4.63014">
        <ele>1080</ele>
        <time>2017-04-20T18:10:37Z</time>
      </trkpt>
      <trkpt lat="45.38627" lon="4.62935">
        <ele>1108</ele>
        <time>2017-04-20T18:12:37Z</time>
      </trkpt>
      <trkpt lat="45.38669" lon="4.62885">
        <ele>1133</ele>
        <time>2017-04-20T18:14:37Z</time>
      </trkpt>
      <trkpt lat="45.38751" lon="4.62825">
        <ele>1169</ele>
        <time>2017-04-20T18:16:37Z</time>
      </trkpt>
      <trkpt lat="45.38788" lon="4.62765">
        <ele>1174</ele>
        <time>2017-04-20T18:18:37Z</time>
      </trkpt>
      <trkpt lat="45.3882" lon="4.62709">
        <ele>1176</ele>
        <time>2017-04-20T18:20:37Z</time>
      </trkpt>
      <trkpt lat="45.38855" lon="4.62662">
        <ele>1177</ele>
        <time>2017-04-20T18:22:37Z</time>
      </trkpt>
      <trkpt lat="45.38889" lon="4.62561">
        <ele>1172</ele>
        <time>2017-04-20T18:24:37Z</time>
      </trkpt>
      <trkpt lat="45.38909" lon="4.62454">
        <ele>1171</ele>
        <time>2017-04-20T18:26:37Z</time>
      </trkpt>
      <trkpt lat="45.38909" lon="4.62351">
        <ele>1164</ele>
        <time>2017-04-20T18:28:37Z</time>
      </trkpt>
      <trkpt lat="45.38902" lon="4.6222">
        <ele>1159</ele>
        <time>2017-04-20T18:30:37Z</time>
      </trkpt>
      <trkpt lat="45.38883" lon="4.62117">
        <ele>1170</ele>
        <time>2017-04-20T18:32:37Z</time>
      </trkpt>
      <trkpt lat="45.3885" lon="4.62051">
        <ele>1183</ele>
        <time>2017-04-20T18:34:37Z</time>
      </trkpt>
      <trkpt lat="45.38844" lon="4.61975">
        <ele>1201</ele>
        <time>2017-04-20T18:36:37Z</time>
      </trkpt>
      <trkpt lat="45.38846" lon="4.6192">
        <ele>1210</ele>
        <time>2017-04-20T18:38:37Z</time>
      </trkpt>
      <trkpt lat="45.38835" lon="4.61868">
        <ele>1220</ele>
        <time>2017-04-20T18:40:37Z</time>
      </trkpt>
      <trkpt lat="45.38817" lon="4.61829">
        <ele>1225</ele>
        <time>2017-04-20T18:42:37Z</time>
      </trkpt>
      <trkpt lat="45.38835" lon="4.61754">
        <ele>1235</ele>
        <time>2017-04-20T18:44:37Z</time>
      </trkpt>
      <trkpt lat="45.38829" lon="4.61699">
        <ele>1236</ele>
        <time>2017-04-20T18:46:37Z</time>
      </trkpt>
      <trkpt lat="45.38879" lon="4.61581">
        <ele>1236</ele>
        <time>2017-04-20T18:48:37Z</time>
      </trkpt>
      <trkpt lat="45.389" lon="4.61548">
        <ele>1238</ele>
        <time>2017-04-20T18:50:37Z</time>
      </trkpt>
      <trkpt lat="45.38935" lon="4.61512">
        <ele>1244</ele>
        <time>2017-04-20T18:52:37Z</time>
      </trkpt>
      <trkpt lat="45.38956" lon="4.61433">
        <ele>1255</ele>
        <time>2017-04-20T18:54:37Z</time>
      </trkpt>
      <trkpt lat="45.38978" lon="4.61368">
        <ele>1264</ele>
        <time>2017-04-20T18:56:37Z</time>
      </trkpt>
      <trkpt lat="45.38999" lon="4.61209">
        <ele>1274</ele>
        <time>2017-04-20T18:58:37Z</time>
      </trkpt>
      <trkpt lat="45.39016" lon="4.61169">
        <ele>1280</ele>
        <time>2017-04-20T19:00:37Z</time>
      </trkpt>
      <trkpt lat="45.39045" lon="4.61104">
        <ele>1293</ele>
        <time>2017-04-20T19:02:37Z</time>
      </trkpt>
      <trkpt lat="45.39072" lon="4.61036">
        <ele>1304</ele>
        <time>2017-04-20T19:04:37Z</time>
      </trkpt>
      <trkpt lat="45.39091" lon="4.60956">
        <ele>1312</ele>
        <time>2017-04-20T19:06:37Z</time>
      </trkpt>
      <trkpt lat="45.39097" lon="4.60872">
        <ele>1317</ele>
        <time>2017-04-20T19:08:37Z</time>
      </trkpt>
      <trkpt lat="45.39097" lon="4.60823">
        <ele>1318</ele>
        <time>2017-04-20T19:10:37Z</time>
      </trkpt>
      <trkpt lat="45.39128" lon="4.60836">
        <ele>1320</ele>
        <time>2017-04-20T19:12:37Z</time>
      </trkpt>
      <trkpt lat="45.39158" lon="4.60885">
        <ele>1325</ele>
        <time>2017-04-20T19:14:37Z</time>
      </trkpt>
      <trkpt lat="45.39194" lon="4.60939">
        <ele>1332</ele>
        <time>2017-04-20T19:16:37Z</time>
      </trkpt>
      <trkpt lat="45.39235" lon="4.60999">
        <ele>1342</ele>
        <time>2017-04-20T19:18:37Z</time>
      </trkpt>
      <trkpt lat="45.39268" lon="4.61072">
        <ele>1349</ele>
        <time>2017-04-20T19:20:37Z</time>
      </trkpt>
      <trkpt lat="45.39274" lon="4.61156">
        <ele>1349</ele>
        <time>2017-04-20T19:22:37Z</time>
      </trkpt>
      <trkpt lat="45.39275" lon="4.61214">
        <ele>1345</ele>
        <time>2017-04-20T19:24:37Z</time>
      </trkpt>
      <trkpt lat="45.39301" lon="4.61242">
        <ele>1339</ele>
        <time>2017-04-20T19:26:37Z</time>
      </trkpt>
      <trkpt lat="45.3928" lon="4.61297">
        <ele>1335</ele>
        <time>2017-04-20T19:28:37Z</time>
      </trkpt>
      <trkpt lat="45.3932" lon="4.6128">
        <ele>1333</ele>
        <time>2017-04-20T19:30:37Z</time>
      </trkpt>
      <trkpt lat="45.39504" lon="4.6131">
        <ele>1291</ele>
        <time>2017-04-20T19:32:37Z</time>
      </trkpt>
      <trkpt lat="45.3958" lon="4.6134">
        <ele>1280</ele>
        <time>2017-04-20T19:34:37Z</time>
      </trkpt>
      <trkpt lat="45.39662" lon="4.61368">
        <ele>1272</ele>
        <time>2017-04-20T19:36:37Z</time>
      </trkpt>
      <trkpt lat="45.39759" lon="4.61394">
        <ele>1270</ele>
        <time>2017-04-20T19:38:37Z</time>
      </trkpt>
      <trkpt lat="45.39815" lon="4.61411">
        <ele>1270</ele>
        <time>2017-04-20T19:40:37Z</time>
      </trkpt>
      <trkpt lat="45.39895" lon="4.61463">
        <ele>1268</ele>
        <time>2017-04-20T19:42:37Z</time>
      </trkpt>
      <trkpt lat="45.39923" lon="4.61516">
        <ele>1266</ele>
        <time>2017-04-20T19:44:37Z</time>
      </trkpt>
      <trkpt lat="45.40001" lon="4.61538">
        <ele>1268</ele>
        <time>2017-04-20T19:46:37Z</time>
      </trkpt>
      <trkpt lat="45.40026" lon="4.61559">
        <ele>1267</ele>
        <time>2017-04-20T19:48:37Z</time>
      </trkpt>
      <trkpt lat="45.40158" lon="4.61471">
        <ele>1261</ele>
        <time>2017-04-20T19:50:37Z</time>
      </trkpt>
      <trkpt lat="45.40232" lon="4.61435">
        <ele>1265</ele>
        <time>2017-04-20T19:52:37Z</time>
      </trkpt>
      <trkpt lat="45.40334" lon="4.61411">
        <ele>1264</ele>
        <time>2017-04-20T19:54:37Z</time>
      </trkpt>
      <trkpt lat="45.40473" lon="4.61411">
        <ele>1251</ele>
        <time>2017-04-20T19:56:37Z</time>
      </trkpt>
      <trkpt lat="45.40539" lon="4.61422">
        <ele>1240</ele>
        <time>2017-04-20T19:58:37Z</time>
      </trkpt>
      <trkpt lat="45.40583" lon="4.61411">
        <ele>1232</ele>
        <time>2017-04-20T20:00:37Z</time>
      </trkpt>
      <trkpt lat="45.40625" lon="4.61418">
        <ele>1225</ele>
        <time>2017-04-20T20:02:37Z</time>
      </trkpt>
      <trkpt lat="45.40663" lon="4.61426">
        <ele>1218</ele>
        <time>2017-04-20T20:04:37Z</time>
      </trkpt>
      <trkpt lat="45.40702" lon="4.61437">
        <ele>1218</ele>
        <time>2017-04-20T20:06:37Z</time>
      </trkpt>
      <trkpt lat="45.40774" lon="4.61454">
        <ele>1225</ele>
        <time>2017-04-20T20:08:37Z</time>
      </trkpt>
      <trkpt lat="45.4086" lon="4.6145">
        <ele>1243</ele>
        <time>2017-04-20T20:10:37Z</time>
      </trkpt>
      <trkpt lat="45.40955" lon="4.61456">
        <ele>1263</ele>
        <time>2017-04-20T20:12:37Z</time>
      </trkpt>
      <trkpt lat="45.41015" lon="4.61501">
        <ele>1275</ele>
        <time>2017-04-20T20:14:37Z</time>
      </trkpt>
      <trkpt lat="45.41095" lon="4.61518">
        <ele>1283</ele>
        <time>2017-04-20T20:16:37Z</time>
      </trkpt>
      <trkpt lat="45.41151" lon="4.61495">
        <ele>1289</ele>
        <time>2017-04-20T20:18:37Z</time>
      </trkpt>
      <trkpt lat="45.41211" lon="4.61471">
        <ele>1288</ele>
        <time>2017-04-20T20:20:37Z</time>
      </trkpt>
      <trkpt lat="45.41274" lon="4.61452">
        <ele>1284</ele>
        <time>2017-04-20T20:22:37Z</time>
      </trkpt>
      <trkpt lat="45.41365" lon="4.61465">
        <ele>1270</ele>
        <time>2017-04-20T20:24:37Z</time>
      </trkpt>
      <trkpt lat="45.4149" lon="4.61471">
        <ele>1245</ele>
        <time>2017-04-20T20:26:37Z</time>
      </trkpt>
      <trkpt lat="45.41544" lon="4.61482">
        <ele>1231</ele>
        <time>2017-04-20T20:28:37Z</time>
      </trkpt>
      <trkpt lat="45.41648" lon="4.61478">
        <ele>1203</ele>
        <time>2017-04-20T20:30:37Z</time>
      </trkpt>
      <trkpt lat="45.41665" lon="4.61503">
        <ele>1198</ele>
        <time>2017-04-20T20:32:37Z</time>
      </trkpt>
      <trkpt lat="45.41687" lon="4.61548">
        <ele>1185</ele>
        <time>2017-04-20T20:34:37Z</time>
      </trkpt>
      <trkpt lat="45.41711" lon="4.61578">
        <ele>1176</ele>
        <time>2017-04-20T20:36:37Z</time>
      </trkpt>
      <trkpt lat="45.4177" lon="4.61561">
        <ele>1165</ele>
        <time>2017-04-20T20:38:37Z</time>
      </trkpt>
      <trkpt lat="45.41826" lon="4.61557">
        <ele>1151</ele>
        <time>2017-04-20T20:40:37Z</time>
      </trkpt>
      <trkpt lat="45.4186" lon="4.61574">
        <ele>1141</ele>
        <time>2017-04-20T20:42:37Z</time>
      </trkpt>
      <trkpt lat="45.4194" lon="4.61574">
        <ele>1117</ele>
        <time>2017-04-20T20:44:37Z</time>
      </trkpt>
      <trkpt lat="45.41975" lon="4.61596">
        <ele>1107</ele>
        <time>2017-04-20T20:46:37Z</time>
      </trkpt>
      <trkpt lat="45.42006" lon="4.61621">
        <ele>1097</ele>
        <time>2017-04-20T20:48:37Z</time>
      </trkpt>
      <trkpt lat="45.42047" lon="4.61606">
        <ele>1084</ele>
        <time>2017-04-20T20:50:37Z</time>
      </trkpt>
      <trkpt lat="45.42091" lon="4.61619">
        <ele>1067</ele>
        <time>2017-04-20T20:52:37Z</time>
      </trkpt>
      <trkpt lat="45.42118" lon="4.61654">
        <ele>1055</ele>
        <time>2017-04-20T20:54:37Z</time>
      </trkpt>
      <trkpt lat="45.42177" lon="4.61643">
        <ele>1035</ele>
        <time>2017-04-20T20:56:37Z</time>
      </trkpt>
      <trkpt lat="45.42223" lon="4.6166">
        <ele>1017</ele>
        <time>2017-04-20T20:58:37Z</time>
      </trkpt>
      <trkpt lat="45.42244" lon="4.61649">
        <ele>1009</ele>
        <time>2017-04-20T21:00:37Z</time>
      </trkpt>
      <trkpt lat="45.42369" lon="4.6169">
        <ele>968</ele>
        <time>2017-04-20T21:02:37Z</time>
      </trkpt>
      <trkpt lat="45.42422" lon="4.61705">
        <ele>955</ele>
        <time>2017-04-20T21:04:37Z</time>
      </trkpt>
      <trkpt lat="45.42494" lon="4.61733">
        <ele>947</ele>
        <time>2017-04-20T21:06:37Z</time>
      </trkpt>
      <trkpt lat="45.42523" lon="4.61744">
        <ele>949</ele>
        <time>2017-04-20T21:08:37Z</time>
      </trkpt>
      <trkpt lat="45.42653" lon="4.6163">
        <ele>943</ele>
        <time>2017-04-20T21:10:37Z</time>
      </trkpt>
      <trkpt lat="45.42705" lon="4.61593">
        <ele>941</ele>
        <time>2017-04-20T21:12:37Z</time>
      </trkpt>
      <trkpt lat="45.42775" lon="4.61546">
        <ele>940</ele>
        <time>2017-04-20T21:14:37Z</time>
      </trkpt>
      <trkpt lat="45.4282" lon="4.61454">
        <ele>932</ele>
        <time>2017-04-20T21:16:37Z</time>
      </trkpt>
      <trkpt lat="45.42874" lon="4.61334">
        <ele>925</ele>
        <time>2017-04-20T21:18:37Z</time>
      </trkpt>
      <trkpt lat="45.42927" lon="4.61209">
        <ele>914</ele>
        <time>2017-04-20T21:20:37Z</time>
      </trkpt>
      <trkpt lat="45.42973" lon="4.61111">
        <ele>908</ele>
        <time>2017-04-20T21:22:37Z</time>
      </trkpt>
      <trkpt lat="45.42997" lon="4.60975">
        <ele>888</ele>
        <time>2017-04-20T21:24:37Z</time>
      </trkpt>
      <trkpt lat="45.43012" lon="4.60868">
        <ele>874</ele>
        <time>2017-04-20T21:26:37Z</time>
      </trkpt>
      <trkpt lat="45.43034" lon="4.60735">
        <ele>860</ele>
        <time>2017-04-20T21:28:37Z</time>
      </trkpt>
      <trkpt lat="45.43059" lon="4.606">
        <ele>847</ele>
        <time>2017-04-20T21:30:37Z</time>
      </trkpt>
      <trkpt lat="45.43079" lon="4.60486">
        <ele>839</ele>
        <time>2017-04-20T21:32:37Z</time>
      </trkpt>
      <trkpt lat="45.43086" lon="4.60357">
        <ele>834</ele>
        <time>2017-04-20T21:34:37Z</time>
      </trkpt>
      <trkpt lat="45.43086" lon="4.60267">
        <ele>828</ele>
        <time>2017-04-20T21:36:37Z</time>
      </trkpt>
      <trkpt lat="45.43077" lon="4.60115">
        <ele>815</ele>
        <time>2017-04-20T21:38:37Z</time>
      </trkpt>
      <trkpt lat="45.43059" lon="4.59956">
        <ele>801</ele>
        <time>2017-04-20T21:40:37Z</time>
      </trkpt>
      <trkpt lat="45.43053" lon="4.59767">
        <ele>794</ele>
        <time>2017-04-20T21:42:37Z</time>
      </trkpt>
      <trkpt lat="45.43065" lon="4.59405">
        <ele>764</ele>
        <time>2017-04-20T21:44:37Z</time>
      </trkpt>
      <trkpt lat="45.43006" lon="4.59566">
        <ele>757</ele>
        <time>2017-04-20T21:46:37Z</time>
      </trkpt>
      <trkpt lat="45.42985" lon="4.59456">
        <ele>742</ele>
        <time>2017-04-20T21:48:37Z</time>
      </trkpt>
      <trkpt lat="45.42969" lon="4.59345">
        <ele>728</ele>
        <time>2017-04-20T21:50:37Z</time>
      </trkpt>
      <trkpt lat="45.42924" lon="4.59242">
        <ele>715</ele>
        <time>2017-04-20T21:52:37Z</time>
      </trkpt>
      <trkpt lat="45.42886" lon="4.59218">
        <ele>703</ele>
        <time>2017-04-20T21:54:37Z</time>
      </trkpt>
      <trkpt lat="45.42854" lon="4.59182">
        <ele>694</ele>
        <time>2017-04-20T21:56:37Z</time>
      </trkpt>
      <trkpt lat="45.42878" lon="4.59124">
        <ele>697</ele>
        <time>2017-04-20T21:58:37Z</time>
      </trkpt>
      <trkpt lat="45.42883" lon="4.59083">
        <ele>694</ele>
        <time>2017-04-20T22:00:37Z</time>
      </trkpt>
      <trkpt lat="45.42887" lon="4.59001">
        <ele>684</ele>
        <time>2017-04-20T22:02:37Z</time>
      </trkpt>
      <trkpt lat="45.42895" lon="4.58918">
        <ele>674</ele>
        <time>2017-04-20T22:04:37Z</time>
      </trkpt>
      <trkpt lat="45.42904" lon="4.58823">
        <ele>659</ele>
        <time>2017-04-20T22:06:37Z</time>
      </trkpt>
      <trkpt lat="45.42869" lon="4.5877">
        <ele>646</ele>
        <time>2017-04-20T22:08:37Z</time>
      </trkpt>
      <trkpt lat="45.42833" lon="4.58765">
        <ele>643</ele>
        <time>2017-04-20T22:10:37Z</time>
      </trkpt>
      <trkpt lat="45.42788" lon="4.5877">
        <ele>630</ele>
        <time>2017-04-20T22:12:37Z</time>
      </trkpt>
      <trkpt lat="45.42788" lon="4.58825">
        <ele>637</ele>
        <time>2017-04-20T22:14:37Z</time>
      </trkpt>
      <trkpt lat="45.42778" lon="4.5887">
        <ele>638</ele>
        <time>2017-04-20T22:16:37Z</time>
      </trkpt>
      <trkpt lat="45.4275" lon="4.58911">
        <ele>632</ele>
        <time>2017-04-20T22:18:37Z</time>
      </trkpt>
      <trkpt lat="45.42741" lon="4.58877">
        <ele>631</ele>
        <time>2017-04-20T22:20:37Z</time>
      </trkpt>
      <trkpt lat="45.42732" lon="4.58854">
        <ele>629</ele>
        <time>2017-04-20T22:22:37Z</time>
      </trkpt>
      <trkpt lat="45.42712" lon="4.58834">
        <ele>629</ele>
        <time>2017-04-20T22:24:37Z</time>
      </trkpt>
      <trkpt lat="45.42683" lon="4.58826">
        <ele>631</ele>
        <time>2017-04-20T22:26:37Z</time>
      </trkpt>
      <trkpt lat="45.42712" lon="4.58822">
        <ele>627</ele>
        <time>2017-04-20T22:28:37Z</time>
      </trkpt>
      <trkpt lat="45.42714" lon="4.58806">
        <ele>623</ele>
        <time>2017-04-20T22:30:37Z</time>
      </trkpt>
      <trkpt lat="45.42689" lon="4.58779">
        <ele>616</ele>
        <time>2017-04-20T22:32:37Z</time>
      </trkpt>
      <trkpt lat="45.4268" lon="4.58742">
        <ele>605</ele>
        <time>2017-04-20T22:34:37Z</time>
      </trkpt>
      <trkpt lat="45.42677" lon="4.58713">
        <ele>600</ele>
        <time>2017-04-20T22:36:37Z</time>
      </trkpt>
      <trkpt lat="45.4269" lon="4.58698">
        <ele>599</ele>
        <time>2017-04-20T22:38:37Z</time>
      </trkpt>
      <trkpt lat="45.42704" lon="4.58676">
        <ele>598</ele>
        <time>2017-04-20T22:40:37Z</time>
      </trkpt>
      <trkpt lat="45.42714" lon="4.58639">
        <ele>596</ele>
        <time>2017-04-20T22:42:37Z</time>
      </trkpt>
      <trkpt lat="45.42723" lon="4.58599">
        <ele>593</ele>
        <time>2017-04-20T22:44:37Z</time>
      </trkpt>
    </trkseg>
  </trk>
</gpx>